createdAt,value
2022-10-12T00:00:04.658Z,98.06
2022-10-12T00:00:24.697Z,98
2022-10-12T00:00:44.797Z,97.92
2022-10-12T00:01:04.826Z,97.81
2022-10-12T00:01:24.943Z,97.77
2022-10-12T00:01:45.031Z,97.74
2022-10-12T00:02:05.137Z,97.71
2022-10-12T00:02:25.089Z,97.65
2022-10-12T00:02:45.153Z,97.65
2022-10-12T00:03:05.211Z,97.67
2022-10-12T00:03:25.266Z,97.68
2022-10-12T00:03:45.329Z,97.7
2022-10-12T00:04:05.406Z,97.62
2022-10-12T00:04:25.435Z,97.57
2022-10-12T00:04:45.503Z,97.57
2022-10-12T00:05:05.603Z,97.59
2022-10-12T00:05:25.654Z,97.55
2022-10-12T00:05:45.718Z,97.52
2022-10-12T00:06:05.775Z,97.45
2022-10-12T00:06:25.830Z,97.49
2022-10-12T00:06:45.879Z,97.45
2022-10-12T00:07:05.963Z,97.44
2022-10-12T00:07:26.021Z,97.47
2022-10-12T00:07:46.080Z,97.47
2022-10-12T00:08:06.139Z,97.56
2022-10-12T00:08:26.196Z,97.65
2022-10-12T00:08:46.254Z,97.72
2022-10-12T00:09:06.318Z,97.76
2022-10-12T00:09:26.373Z,97.82
2022-10-12T00:09:46.450Z,97.87
2022-10-12T00:10:06.492Z,97.87
2022-10-12T00:10:26.547Z,97.94
2022-10-12T00:10:46.626Z,98
2022-10-12T00:11:06.678Z,97.98
2022-10-12T00:11:26.740Z,98.04
2022-10-12T00:11:46.800Z,98.11
2022-10-12T00:12:06.860Z,98.19
2022-10-12T00:12:26.922Z,98.22
2022-10-12T00:12:46.984Z,98.27
2022-10-12T00:13:07.044Z,98.22
2022-10-12T00:13:27.100Z,98.25
2022-10-12T00:13:47.161Z,98.3
2022-10-12T00:14:07.217Z,98.31
2022-10-12T00:14:27.272Z,98.37
2022-10-12T00:14:47.339Z,98.42
2022-10-12T00:15:07.402Z,98.42
2022-10-12T00:15:27.453Z,98.45
2022-10-12T00:15:47.523Z,98.45
2022-10-12T00:16:07.587Z,98.47
2022-10-12T00:16:27.649Z,98.5
2022-10-12T00:16:47.715Z,98.55
2022-10-12T00:17:07.761Z,98.59
2022-10-12T00:17:27.826Z,98.64
2022-10-12T00:17:47.878Z,98.61
2022-10-12T00:18:07.945Z,98.63
2022-10-12T00:18:28.009Z,98.67
2022-10-12T00:18:48.059Z,98.71
2022-10-12T00:19:08.121Z,98.73
2022-10-12T00:19:28.182Z,98.77
2022-10-12T00:19:48.240Z,98.77
2022-10-12T00:20:08.300Z,98.83
2022-10-12T00:20:28.363Z,98.84
2022-10-12T00:20:48.433Z,98.88
2022-10-12T00:21:08.478Z,98.88
2022-10-12T00:21:28.536Z,98.96
2022-10-12T00:21:48.603Z,98.91
2022-10-12T00:22:08.662Z,98.95
2022-10-12T00:22:28.722Z,98.96
2022-10-12T00:22:48.782Z,98.97
2022-10-12T00:23:08.845Z,98.99
2022-10-12T00:23:28.911Z,99.03
2022-10-12T00:23:48.967Z,99.04
2022-10-12T00:24:09.020Z,99.06
2022-10-12T00:24:29.094Z,99.03
2022-10-12T00:24:49.121Z,99.05
2022-10-12T00:25:09.203Z,99.05
2022-10-12T00:25:29.267Z,99.02
2022-10-12T00:25:49.332Z,99.07
2022-10-12T00:26:09.387Z,99.09
2022-10-12T00:26:29.462Z,99.1
2022-10-12T00:26:49.512Z,99.11
2022-10-12T00:27:09.568Z,99.14
2022-10-12T00:27:29.603Z,99.17
2022-10-12T00:27:49.686Z,99.18
2022-10-12T00:28:09.836Z,99.19
2022-10-12T00:28:29.887Z,99.22
2022-10-12T00:28:49.922Z,99.23
2022-10-12T00:29:09.927Z,99.25
2022-10-12T00:29:29.981Z,99.24
2022-10-12T00:29:50.034Z,99.31
2022-10-12T00:30:10.098Z,99.29
2022-10-12T00:30:30.163Z,99.32
2022-10-12T00:30:50.214Z,99.32
2022-10-12T00:31:10.268Z,99.33
2022-10-12T00:31:30.336Z,99.33
2022-10-12T00:31:50.389Z,99.37
2022-10-12T00:32:10.448Z,99.37
2022-10-12T00:32:30.502Z,99.39
2022-10-12T00:32:50.575Z,99.4
2022-10-12T00:33:10.639Z,99.35
2022-10-12T00:33:30.688Z,99.36
2022-10-12T00:33:50.760Z,99.43
2022-10-12T00:34:10.840Z,99.39
2022-10-12T00:34:30.888Z,99.41
2022-10-12T00:34:50.952Z,99.42
2022-10-12T00:35:11.005Z,99.43
2022-10-12T00:35:31.078Z,99.45
2022-10-12T00:35:51.141Z,99.46
2022-10-12T00:36:11.212Z,99.44
2022-10-12T00:36:31.241Z,99.4
2022-10-12T00:36:51.314Z,99.42
2022-10-12T00:37:11.394Z,99.44
2022-10-12T00:37:31.446Z,99.4
2022-10-12T00:37:51.510Z,99.44
2022-10-12T00:38:11.552Z,99.35
2022-10-12T00:38:31.602Z,99.32
2022-10-12T00:38:51.658Z,99.31
2022-10-12T00:39:11.730Z,99.33
2022-10-12T00:39:31.806Z,99.29
2022-10-12T00:39:51.876Z,99.26
2022-10-12T00:40:11.940Z,99.28
2022-10-12T00:40:31.991Z,99.26
2022-10-12T00:40:52.056Z,99.25
2022-10-12T00:41:12.101Z,99.29
2022-10-12T00:41:32.174Z,99.24
2022-10-12T00:41:52.240Z,99.23
2022-10-12T00:42:12.285Z,99.23
2022-10-12T00:42:32.361Z,99.24
2022-10-12T00:42:52.418Z,99.25
2022-10-12T00:43:12.478Z,99.24
2022-10-12T00:43:32.545Z,99.26
2022-10-12T00:43:56.961Z,99.29
2022-10-12T00:44:12.662Z,99.28
2022-10-12T00:44:32.714Z,99.26
2022-10-12T00:44:52.792Z,99.29
2022-10-12T00:45:12.837Z,99.33
2022-10-12T00:45:32.902Z,99.29
2022-10-12T00:45:52.956Z,99.34
2022-10-12T00:46:13.017Z,99.32
2022-10-12T00:46:33.061Z,99.36
2022-10-12T00:46:53.148Z,99.35
2022-10-12T00:47:13.191Z,99.38
2022-10-12T00:47:33.263Z,99.35
2022-10-12T00:47:53.332Z,99.35
2022-10-12T00:48:13.389Z,99.31
2022-10-12T00:48:33.436Z,99.37
2022-10-12T00:48:53.494Z,99.36
2022-10-12T00:49:13.563Z,99.33
2022-10-12T00:49:33.616Z,99.33
2022-10-12T00:49:53.681Z,99.34
2022-10-12T00:50:13.740Z,99.34
2022-10-12T00:50:33.796Z,99.38
2022-10-12T00:50:53.858Z,99.37
2022-10-12T00:51:13.920Z,99.39
2022-10-12T00:51:33.974Z,99.44
2022-10-12T00:51:54.039Z,99.43
2022-10-12T00:52:14.101Z,99.43
2022-10-12T00:52:34.158Z,99.43
2022-10-12T00:52:54.218Z,99.47
2022-10-12T00:53:14.265Z,99.43
2022-10-12T00:53:34.347Z,99.49
2022-10-12T00:53:54.406Z,99.47
2022-10-12T00:54:14.528Z,99.47
2022-10-12T00:54:34.579Z,99.46
2022-10-12T00:54:54.634Z,99.49
2022-10-12T00:55:14.681Z,99.49
2022-10-12T00:55:34.746Z,99.47
2022-10-12T00:55:54.809Z,99.48
2022-10-12T00:56:14.886Z,99.49
2022-10-12T00:56:34.975Z,99.46
2022-10-12T00:56:55.039Z,99.49
2022-10-12T00:57:15.109Z,99.44
2022-10-12T00:57:35.522Z,99.5
2022-10-12T00:57:55.224Z,99.51
2022-10-12T00:58:15.336Z,99.52
2022-10-12T00:58:35.426Z,99.49
2022-10-12T00:58:55.491Z,99.49
2022-10-12T00:59:15.585Z,99.5
2022-10-12T00:59:35.660Z,99.52
2022-10-12T00:59:55.736Z,99.48
2022-10-12T01:00:15.782Z,99.49
2022-10-12T01:00:35.918Z,99.51
2022-10-12T01:00:56.008Z,99.48
2022-10-12T01:01:16.147Z,99.51
2022-10-12T01:01:36.083Z,99.5
2022-10-12T01:01:56.125Z,99.51
2022-10-12T01:02:16.201Z,99.54
2022-10-12T01:02:36.282Z,99.53
2022-10-12T01:02:56.376Z,99.54
2022-10-12T01:03:16.450Z,99.54
2022-10-12T01:03:36.529Z,99.55
2022-10-12T01:03:56.579Z,99.52
2022-10-12T01:04:16.647Z,99.56
2022-10-12T01:04:36.728Z,99.56
2022-10-12T01:04:56.813Z,99.56
2022-10-12T01:05:16.858Z,99.56
2022-10-12T01:05:36.936Z,99.59
2022-10-12T01:05:57.046Z,99.57
2022-10-12T01:06:17.076Z,99.58
2022-10-12T01:06:37.176Z,99.6
2022-10-12T01:06:57.242Z,99.63
2022-10-12T01:07:17.319Z,99.65
2022-10-12T01:07:37.718Z,99.6
2022-10-12T01:07:57.498Z,99.65
2022-10-12T01:08:17.567Z,99.67
2022-10-12T01:08:37.657Z,99.71
2022-10-12T01:08:57.721Z,99.73
2022-10-12T01:09:17.780Z,99.72
2022-10-12T01:09:37.840Z,99.72
2022-10-12T01:09:57.917Z,99.7
2022-10-12T01:10:17.980Z,99.69
2022-10-12T01:10:38.029Z,99.73
2022-10-12T01:10:58.125Z,99.73
2022-10-12T01:11:18.181Z,99.76
2022-10-12T01:11:38.240Z,99.74
2022-10-12T01:11:58.301Z,99.76
2022-10-12T01:12:18.383Z,99.74
2022-10-12T01:12:38.430Z,99.75
2022-10-12T01:12:58.511Z,99.75
2022-10-12T01:13:18.584Z,99.79
2022-10-12T01:13:38.667Z,99.77
2022-10-12T01:13:58.750Z,99.76
2022-10-12T01:14:18.790Z,99.76
2022-10-12T01:14:38.883Z,99.8
2022-10-12T01:14:58.953Z,99.75
2022-10-12T01:15:19.053Z,99.76
2022-10-12T01:15:39.074Z,99.76
2022-10-12T01:15:59.161Z,99.77
2022-10-12T01:16:19.217Z,99.75
2022-10-12T01:16:39.310Z,99.74
2022-10-12T01:16:59.391Z,99.79
2022-10-12T01:17:19.457Z,99.72
2022-10-12T01:17:39.897Z,99.74
2022-10-12T01:17:59.634Z,99.77
2022-10-12T01:18:19.705Z,99.74
2022-10-12T01:18:39.770Z,99.75
2022-10-12T01:18:59.822Z,99.79
2022-10-12T01:19:19.905Z,99.8
2022-10-12T01:19:39.962Z,99.81
2022-10-12T01:20:00.011Z,99.8
2022-10-12T01:20:20.084Z,99.81
2022-10-12T01:20:40.145Z,99.86
2022-10-12T01:21:00.195Z,99.84
2022-10-12T01:21:20.289Z,99.84
2022-10-12T01:21:40.366Z,99.86
2022-10-12T01:22:00.470Z,99.85
2022-10-12T01:22:20.556Z,99.87
2022-10-12T01:22:40.647Z,99.82
2022-10-12T01:23:00.695Z,99.84
2022-10-12T01:23:20.753Z,99.82
2022-10-12T01:23:40.835Z,99.87
2022-10-12T01:24:00.892Z,99.9
2022-10-12T01:24:20.972Z,99.87
2022-10-12T01:24:41.052Z,99.87
2022-10-12T01:25:01.111Z,99.89
2022-10-12T01:25:21.198Z,99.84
2022-10-12T01:25:41.277Z,99.89
2022-10-12T01:26:01.364Z,99.92
2022-10-12T01:26:21.417Z,99.88
2022-10-12T01:26:41.492Z,99.93
2022-10-12T01:27:01.593Z,99.88
2022-10-12T01:27:21.687Z,99.88
2022-10-12T01:27:41.739Z,99.9
2022-10-12T01:28:01.831Z,99.89
2022-10-12T01:28:21.973Z,99.87
2022-10-12T01:28:42.059Z,99.9
2022-10-12T01:29:02.090Z,99.9
2022-10-12T01:29:22.191Z,99.9
2022-10-12T01:29:42.419Z,99.89
2022-10-12T01:30:02.315Z,99.9
2022-10-12T01:30:22.391Z,99.87
2022-10-12T01:30:42.453Z,99.88
2022-10-12T01:31:02.498Z,99.85
2022-10-12T01:31:22.591Z,99.83
2022-10-12T01:31:42.649Z,99.82
2022-10-12T01:32:02.735Z,99.81
2022-10-12T01:32:22.795Z,99.81
2022-10-12T01:32:42.867Z,99.81
2022-10-12T01:33:02.941Z,99.79
2022-10-12T01:33:23.025Z,99.81
2022-10-12T01:33:43.104Z,99.82
2022-10-12T01:34:03.176Z,99.79
2022-10-12T01:34:23.251Z,99.78
2022-10-12T01:34:43.315Z,99.81
2022-10-12T01:35:03.370Z,99.79
2022-10-12T01:35:23.451Z,99.73
2022-10-12T01:35:43.539Z,99.74
2022-10-12T01:36:03.626Z,99.72
2022-10-12T01:36:23.702Z,99.72
2022-10-12T01:36:43.772Z,99.72
2022-10-12T01:37:03.868Z,99.73
2022-10-12T01:37:23.947Z,99.71
2022-10-12T01:37:43.989Z,99.66
2022-10-12T01:38:04.082Z,99.71
2022-10-12T01:38:24.155Z,99.73
2022-10-12T01:38:44.234Z,99.71
2022-10-12T01:39:04.337Z,99.7
2022-10-12T01:39:24.412Z,99.68
2022-10-12T01:39:44.507Z,99.67
2022-10-12T01:40:04.571Z,99.65
2022-10-12T01:40:24.626Z,99.63
2022-10-12T01:40:44.713Z,99.64
2022-10-12T01:41:04.832Z,99.65
2022-10-12T01:41:24.896Z,99.65
2022-10-12T01:41:44.975Z,99.62
2022-10-12T01:42:05.063Z,99.62
2022-10-12T01:42:25.145Z,99.6
2022-10-12T01:42:45.185Z,99.63
2022-10-12T01:43:05.249Z,99.64
2022-10-12T01:43:25.333Z,99.6
2022-10-12T01:43:45.395Z,99.6
2022-10-12T01:44:05.486Z,99.59
2022-10-12T01:44:25.545Z,99.6
2022-10-12T01:44:45.599Z,99.58
2022-10-12T01:45:05.666Z,99.6
2022-10-12T01:45:25.720Z,99.56
2022-10-12T01:45:45.769Z,99.56
2022-10-12T01:46:05.846Z,99.57
2022-10-12T01:46:25.903Z,99.6
2022-10-12T01:46:45.962Z,99.57
2022-10-12T01:47:06.020Z,99.6
2022-10-12T01:47:26.086Z,99.6
2022-10-12T01:47:46.145Z,99.54
2022-10-12T01:48:06.212Z,99.61
2022-10-12T01:48:26.266Z,99.58
2022-10-12T01:48:46.323Z,99.6
2022-10-12T01:49:06.381Z,99.61
2022-10-12T01:49:26.439Z,99.56
2022-10-12T01:49:46.513Z,99.58
2022-10-12T01:50:06.564Z,99.54
2022-10-12T01:50:26.587Z,99.54
2022-10-12T01:50:46.645Z,99.54
2022-10-12T01:51:06.713Z,99.52
2022-10-12T01:51:26.819Z,99.5
2022-10-12T01:51:46.876Z,99.51
2022-10-12T01:52:06.938Z,99.46
2022-10-12T01:52:26.989Z,99.51
2022-10-12T01:52:47.062Z,99.47
2022-10-12T01:53:07.118Z,99.44
2022-10-12T01:53:27.176Z,99.4
2022-10-12T01:53:47.210Z,99.43
2022-10-12T01:54:07.279Z,99.38
2022-10-12T01:54:27.357Z,99.43
2022-10-12T01:54:47.420Z,99.31
2022-10-12T01:55:08.475Z,99.31
2022-10-12T01:55:27.541Z,99.27
2022-10-12T01:55:47.590Z,99.23
2022-10-12T01:56:07.665Z,99.25
2022-10-12T01:56:27.715Z,99.24
2022-10-12T01:56:47.775Z,99.22
2022-10-12T01:57:07.828Z,99.14
2022-10-12T01:57:27.869Z,99.18
2022-10-12T01:57:47.953Z,99.17
2022-10-12T01:58:08.051Z,99.13
2022-10-12T01:58:28.140Z,99.12
2022-10-12T01:58:48.237Z,99.12
2022-10-12T01:59:08.313Z,99.11
2022-10-12T01:59:28.365Z,99.11
2022-10-12T01:59:48.436Z,99.1
2022-10-12T02:00:08.509Z,99.09
2022-10-12T02:00:28.573Z,99.11
2022-10-12T02:00:48.705Z,99.09
2022-10-12T02:01:08.722Z,99.12
2022-10-12T02:01:28.873Z,99.06
2022-10-12T02:01:48.853Z,99.08
2022-10-12T02:02:08.933Z,99.05
2022-10-12T02:02:29.002Z,99.1
2022-10-12T02:02:49.104Z,99.12
2022-10-12T02:03:09.120Z,99.13
2022-10-12T02:03:29.180Z,99.1
2022-10-12T02:03:49.238Z,99.11
2022-10-12T02:04:09.289Z,99.13
2022-10-12T02:04:29.359Z,99.15
2022-10-12T02:04:49.427Z,99.09
2022-10-12T02:05:09.494Z,99.14
2022-10-12T02:05:29.549Z,99.11
2022-10-12T02:05:49.603Z,99.08
2022-10-12T02:06:09.659Z,99.09
2022-10-12T02:06:29.725Z,99.06
2022-10-12T02:06:49.788Z,99.06
2022-10-12T02:07:09.850Z,99.03
2022-10-12T02:07:29.912Z,98.98
2022-10-12T02:07:49.985Z,98.95
2022-10-12T02:08:10.023Z,98.92
2022-10-12T02:08:30.095Z,98.97
2022-10-12T02:08:50.197Z,98.87
2022-10-12T02:09:10.212Z,98.9
2022-10-12T02:09:30.281Z,98.84
2022-10-12T02:09:50.357Z,98.81
2022-10-12T02:10:10.381Z,98.82
2022-10-12T02:10:30.474Z,98.82
2022-10-12T02:10:50.502Z,98.8
2022-10-12T02:11:10.566Z,98.78
2022-10-12T02:11:30.653Z,98.79
2022-10-12T02:11:50.699Z,98.77
2022-10-12T02:12:10.753Z,98.76
2022-10-12T02:12:30.837Z,98.8
2022-10-12T02:12:50.884Z,98.81
2022-10-12T02:13:10.934Z,98.81
2022-10-12T02:13:30.999Z,98.82
2022-10-12T02:13:51.059Z,98.8
2022-10-12T02:14:11.109Z,98.79
2022-10-12T02:14:31.166Z,98.73
2022-10-12T02:14:51.245Z,98.78
2022-10-12T02:15:11.285Z,98.77
2022-10-12T02:15:31.360Z,98.75
2022-10-12T02:15:51.423Z,98.74
2022-10-12T02:16:11.480Z,98.7
2022-10-12T02:16:31.537Z,98.76
2022-10-12T02:16:51.605Z,98.74
2022-10-12T02:17:11.661Z,98.77
2022-10-12T02:17:31.719Z,98.79
2022-10-12T02:17:51.779Z,98.8
2022-10-12T02:18:11.844Z,98.79
2022-10-12T02:18:31.885Z,98.78
2022-10-12T02:18:51.965Z,98.75
2022-10-12T02:19:12.021Z,98.77
2022-10-12T02:19:32.089Z,98.72
2022-10-12T02:19:52.148Z,98.71
2022-10-12T02:20:12.207Z,98.7
2022-10-12T02:20:32.264Z,98.67
2022-10-12T02:20:52.319Z,98.64
2022-10-12T02:21:12.385Z,98.58
2022-10-12T02:21:32.448Z,98.59
2022-10-12T02:21:52.486Z,98.5
2022-10-12T02:22:12.554Z,98.48
2022-10-12T02:22:32.632Z,98.46
2022-10-12T02:22:52.667Z,98.45
2022-10-12T02:23:12.741Z,98.41
2022-10-12T02:23:32.846Z,98.39
2022-10-12T02:23:52.932Z,98.38
2022-10-12T02:24:13.003Z,98.36
2022-10-12T02:24:33.092Z,98.4
2022-10-12T02:24:53.141Z,98.4
2022-10-12T02:25:13.253Z,98.43
2022-10-12T02:25:33.336Z,98.39
2022-10-12T02:25:53.388Z,98.39
2022-10-12T02:26:13.464Z,98.44
2022-10-12T02:26:33.575Z,98.43
2022-10-12T02:26:53.630Z,98.41
2022-10-12T02:27:13.689Z,98.38
2022-10-12T02:27:33.772Z,98.38
2022-10-12T02:27:53.841Z,98.42
2022-10-12T02:28:13.947Z,98.43
2022-10-12T02:28:34.022Z,98.45
2022-10-12T02:28:54.159Z,98.46
2022-10-12T02:29:14.158Z,98.43
2022-10-12T02:29:34.228Z,98.45
2022-10-12T02:29:54.350Z,98.43
2022-10-12T02:30:14.382Z,98.46
2022-10-12T02:30:34.455Z,98.45
2022-10-12T02:30:54.519Z,98.47
2022-10-12T02:31:14.542Z,98.45
2022-10-12T02:31:34.638Z,98.43
2022-10-12T02:31:54.716Z,98.45
2022-10-12T02:32:14.772Z,98.41
2022-10-12T02:32:34.807Z,98.48
2022-10-12T02:32:54.878Z,98.43
2022-10-12T02:33:14.981Z,98.47
2022-10-12T02:33:35.065Z,98.46
2022-10-12T02:33:55.149Z,98.47
2022-10-12T02:34:15.300Z,98.43
2022-10-12T02:34:35.331Z,98.51
2022-10-12T02:34:55.461Z,98.48
2022-10-12T02:35:15.558Z,98.53
2022-10-12T02:35:35.645Z,98.54
2022-10-12T02:35:55.703Z,98.56
2022-10-12T02:36:15.797Z,98.59
2022-10-12T02:36:35.898Z,98.67
2022-10-12T02:36:55.999Z,98.64
2022-10-12T02:37:16.113Z,98.67
2022-10-12T02:37:36.577Z,98.65
2022-10-12T02:37:56.308Z,98.65
2022-10-12T02:38:16.347Z,98.68
2022-10-12T02:38:36.410Z,98.66
2022-10-12T02:38:56.525Z,98.68
2022-10-12T02:39:16.574Z,98.68
2022-10-12T02:39:36.692Z,98.66
2022-10-12T02:39:56.786Z,98.67
2022-10-12T02:40:16.867Z,98.69
2022-10-12T02:40:36.937Z,98.7
2022-10-12T02:40:57.003Z,98.71
2022-10-12T02:41:17.075Z,98.71
2022-10-12T02:41:37.156Z,98.74
2022-10-12T02:41:57.208Z,98.73
2022-10-12T02:42:17.257Z,98.75
2022-10-12T02:43:05.261Z,98.75
2022-10-12T02:43:09.748Z,98.76
2022-10-12T02:43:17.491Z,98.77
2022-10-12T02:43:37.602Z,98.74
2022-10-12T02:43:57.711Z,98.79
2022-10-12T02:44:17.789Z,98.77
2022-10-12T02:44:37.843Z,98.8
2022-10-12T02:44:57.924Z,98.79
2022-10-12T02:45:17.992Z,98.78
2022-10-12T02:45:38.089Z,98.79
2022-10-12T02:45:58.161Z,98.79
2022-10-12T02:46:18.232Z,98.77
2022-10-12T02:46:38.297Z,98.75
2022-10-12T02:46:58.421Z,98.74
2022-10-12T02:47:18.502Z,98.75
2022-10-12T02:47:38.806Z,98.73
2022-10-12T02:47:58.646Z,98.73
2022-10-12T02:48:18.680Z,98.73
2022-10-12T02:48:38.745Z,98.76
2022-10-12T02:48:58.805Z,98.76
2022-10-12T02:49:18.884Z,98.81
2022-10-12T02:49:38.941Z,98.8
2022-10-12T02:49:59.012Z,98.84
2022-10-12T02:50:19.073Z,98.84
2022-10-12T02:50:39.132Z,98.87
2022-10-12T02:50:59.217Z,98.91
2022-10-12T02:51:19.276Z,98.87
2022-10-12T02:51:39.328Z,98.9
2022-10-12T02:51:59.377Z,98.9
2022-10-12T02:52:19.455Z,98.92
2022-10-12T02:52:39.508Z,98.92
2022-10-12T02:52:59.576Z,98.94
2022-10-12T02:53:19.680Z,98.94
2022-10-12T02:53:39.766Z,98.93
2022-10-12T02:53:59.844Z,98.94
2022-10-12T02:54:19.898Z,98.93
2022-10-12T02:54:39.964Z,98.9
2022-10-12T02:55:00.060Z,98.91
2022-10-12T02:55:20.115Z,98.96
2022-10-12T02:55:40.173Z,98.92
2022-10-12T02:56:00.241Z,98.94
2022-10-12T02:56:20.333Z,98.98
2022-10-12T02:56:40.393Z,99
2022-10-12T02:57:00.462Z,99.01
2022-10-12T02:57:20.527Z,98.99
2022-10-12T02:57:40.755Z,98.98
2022-10-12T02:58:00.649Z,98.97
2022-10-12T02:58:20.703Z,98.95
2022-10-12T02:58:40.768Z,98.97
2022-10-12T02:59:00.809Z,99
2022-10-12T02:59:20.896Z,98.97
2022-10-12T02:59:40.963Z,98.95
2022-10-12T03:00:01.053Z,98.98
2022-10-12T03:00:21.115Z,98.96
2022-10-12T03:00:41.197Z,98.92
2022-10-12T03:01:01.367Z,98.92
2022-10-12T03:01:21.506Z,98.92
2022-10-12T03:01:41.512Z,98.96
2022-10-12T03:02:01.544Z,98.92
2022-10-12T03:02:21.598Z,98.9
2022-10-12T03:02:41.650Z,98.91
2022-10-12T03:03:01.710Z,98.89
2022-10-12T03:03:21.748Z,98.9
2022-10-12T03:03:41.829Z,98.92
2022-10-12T03:04:01.891Z,98.87
2022-10-12T03:04:21.961Z,98.87
2022-10-12T03:04:42.051Z,98.95
2022-10-12T03:05:02.103Z,98.95
2022-10-12T03:05:22.186Z,98.95
2022-10-12T03:05:42.249Z,99.01
2022-10-12T03:06:02.317Z,99
2022-10-12T03:06:22.399Z,99.01
2022-10-12T03:06:42.489Z,99
2022-10-12T03:07:02.549Z,98.97
2022-10-12T03:07:22.577Z,98.97
2022-10-12T03:07:42.652Z,98.95
2022-10-12T03:08:02.736Z,98.99
2022-10-12T03:08:22.795Z,98.97
2022-10-12T03:08:42.849Z,98.97
2022-10-12T03:09:02.921Z,99.01
2022-10-12T03:09:23.003Z,98.96
2022-10-12T03:09:43.078Z,98.98
2022-10-12T03:10:03.153Z,98.98
2022-10-12T03:10:23.244Z,99.02
2022-10-12T03:10:43.303Z,99.02
2022-10-12T03:11:03.360Z,99.02
2022-10-12T03:11:23.438Z,99
2022-10-12T03:11:43.522Z,99.06
2022-10-12T03:12:03.612Z,99.12
2022-10-12T03:12:23.662Z,99.09
2022-10-12T03:12:49.097Z,99.08
2022-10-12T03:13:03.780Z,99.11
2022-10-12T03:13:23.842Z,99.12
2022-10-12T03:13:43.905Z,99.1
2022-10-12T03:14:03.940Z,99.15
2022-10-12T03:14:24.001Z,99.13
2022-10-12T03:14:44.075Z,99.13
2022-10-12T03:15:04.147Z,99.13
2022-10-12T03:15:24.197Z,99.14
2022-10-12T03:15:44.276Z,99.14
2022-10-12T03:16:04.334Z,99.14
2022-10-12T03:16:24.412Z,99.14
2022-10-12T03:16:44.463Z,99.11
2022-10-12T03:17:04.547Z,99.11
2022-10-12T03:17:24.590Z,99.11
2022-10-12T03:17:44.678Z,99.06
2022-10-12T03:18:04.778Z,99.02
2022-10-12T03:18:24.843Z,99.04
2022-10-12T03:18:44.904Z,99.04
2022-10-12T03:19:04.971Z,99.02
2022-10-12T03:19:25.082Z,99.02
2022-10-12T03:19:45.158Z,99.02
2022-10-12T03:20:05.263Z,99.03
2022-10-12T03:20:25.329Z,99.01
2022-10-12T03:20:45.401Z,99.02
2022-10-12T03:21:05.494Z,99.07
2022-10-12T03:21:25.537Z,99.06
2022-10-12T03:21:45.594Z,99.08
2022-10-12T03:22:05.670Z,99.11
2022-10-12T03:22:25.739Z,99.11
2022-10-12T03:22:45.791Z,99.09
2022-10-12T03:23:05.846Z,99.14
2022-10-12T03:23:25.946Z,99.14
2022-10-12T03:23:45.990Z,99.16
2022-10-12T03:24:06.056Z,99.18
2022-10-12T03:24:26.121Z,99.16
2022-10-12T03:24:46.178Z,99.12
2022-10-12T03:25:06.240Z,99.16
2022-10-12T03:25:26.323Z,99.16
2022-10-12T03:25:46.345Z,99.19
2022-10-12T03:26:06.376Z,99.16
2022-10-12T03:26:26.473Z,99.15
2022-10-12T03:26:46.541Z,99.19
2022-10-12T03:27:06.601Z,99.18
2022-10-12T03:27:26.630Z,99.2
2022-10-12T03:27:46.708Z,99.21
2022-10-12T03:28:06.763Z,99.23
2022-10-12T03:28:26.881Z,99.24
2022-10-12T03:28:46.939Z,99.24
2022-10-12T03:29:06.955Z,99.22
2022-10-12T03:29:27.012Z,99.23
2022-10-12T03:29:47.058Z,99.22
2022-10-12T03:30:07.138Z,99.21
2022-10-12T03:30:27.168Z,99.24
2022-10-12T03:30:47.243Z,99.26
2022-10-12T03:31:07.307Z,99.25
2022-10-12T03:31:27.385Z,99.27
2022-10-12T03:31:47.440Z,99.24
2022-10-12T03:32:07.525Z,99.27
2022-10-12T03:32:27.581Z,99.24
2022-10-12T03:32:47.629Z,99.22
2022-10-12T03:33:07.713Z,99.26
2022-10-12T03:33:27.761Z,99.27
2022-10-12T03:33:47.821Z,99.31
2022-10-12T03:34:07.893Z,99.27
2022-10-12T03:34:27.946Z,99.26
2022-10-12T03:34:48.007Z,99.3
2022-10-12T03:35:08.060Z,99.25
2022-10-12T03:35:28.124Z,99.25
2022-10-12T03:35:48.175Z,99.3
2022-10-12T03:36:08.225Z,99.25
2022-10-12T03:36:28.310Z,99.24
2022-10-12T03:36:48.359Z,99.25
2022-10-12T03:37:08.416Z,99.2
2022-10-12T03:37:28.475Z,99.21
2022-10-12T03:37:48.525Z,99.22
2022-10-12T03:38:08.603Z,99.19
2022-10-12T03:38:28.652Z,99.17
2022-10-12T03:38:48.727Z,99.15
2022-10-12T03:39:08.768Z,99.12
2022-10-12T03:39:28.837Z,99.09
2022-10-12T03:39:48.903Z,99.1
2022-10-12T03:40:08.949Z,99.07
2022-10-12T03:40:29.020Z,99.07
2022-10-12T03:40:49.086Z,99.03
2022-10-12T03:41:09.141Z,99.05
2022-10-12T03:41:29.184Z,99.02
2022-10-12T03:41:49.254Z,99.06
2022-10-12T03:42:09.321Z,99.01
2022-10-12T03:42:29.376Z,99.01
2022-10-12T03:42:49.445Z,99
2022-10-12T03:43:09.496Z,99.04
2022-10-12T03:43:29.563Z,99.04
2022-10-12T03:43:49.604Z,99.04
2022-10-12T03:44:09.669Z,99.06
2022-10-12T03:44:29.738Z,99.04
2022-10-12T03:44:49.803Z,99.04
2022-10-12T03:45:09.859Z,99.06
2022-10-12T03:45:29.931Z,99.04
2022-10-12T03:45:49.979Z,99.07
2022-10-12T03:46:10.034Z,99.08
2022-10-12T03:46:30.094Z,99.04
2022-10-12T03:46:50.167Z,99.05
2022-10-12T03:47:10.225Z,99.03
2022-10-12T03:47:30.281Z,99.05
2022-10-12T03:47:50.325Z,98.99
2022-10-12T03:48:10.413Z,98.92
2022-10-12T03:48:30.458Z,98.93
2022-10-12T03:48:50.514Z,98.88
2022-10-12T03:49:10.589Z,98.88
2022-10-12T03:49:30.647Z,98.87
2022-10-12T03:49:50.693Z,98.9
2022-10-12T03:50:10.765Z,98.89
2022-10-12T03:50:30.821Z,98.86
2022-10-12T03:50:50.883Z,98.85
2022-10-12T03:51:10.944Z,98.84
2022-10-12T03:51:30.991Z,98.85
2022-10-12T03:51:51.064Z,98.84
2022-10-12T03:52:11.120Z,98.79
2022-10-12T03:52:31.191Z,98.77
2022-10-12T03:52:51.239Z,98.77
2022-10-12T03:53:11.310Z,98.74
2022-10-12T03:53:31.357Z,98.68
2022-10-12T03:53:51.428Z,98.68
2022-10-12T03:54:11.478Z,98.61
2022-10-12T03:54:31.556Z,98.62
2022-10-12T03:54:51.612Z,98.59
2022-10-12T03:55:11.662Z,98.62
2022-10-12T03:55:31.732Z,98.58
2022-10-12T03:55:51.788Z,98.6
2022-10-12T03:56:11.842Z,98.57
2022-10-12T03:56:31.903Z,98.59
2022-10-12T03:56:51.965Z,98.51
2022-10-12T03:57:12.029Z,98.52
2022-10-12T03:57:32.074Z,98.53
2022-10-12T03:57:52.133Z,98.52
2022-10-12T03:58:12.212Z,98.56
2022-10-12T03:58:32.260Z,98.52
2022-10-12T03:58:52.334Z,98.51
2022-10-12T03:59:12.393Z,98.52
2022-10-12T03:59:32.464Z,98.54
2022-10-12T03:59:52.515Z,98.58
2022-10-12T04:00:12.566Z,98.59
2022-10-12T04:00:32.629Z,98.64
2022-10-12T04:00:52.698Z,98.65
2022-10-12T04:01:12.831Z,98.67
2022-10-12T04:01:32.866Z,98.65
2022-10-12T04:01:52.977Z,98.73
2022-10-12T04:02:16.691Z,98.68
2022-10-12T04:02:32.984Z,98.68
2022-10-12T04:02:53.046Z,98.68
2022-10-12T04:03:13.108Z,98.7
2022-10-12T04:03:33.173Z,98.68
2022-10-12T04:03:53.235Z,98.71
2022-10-12T04:04:13.292Z,98.7
2022-10-12T04:04:33.351Z,98.69
2022-10-12T04:04:53.411Z,98.72
2022-10-12T04:05:13.469Z,98.74
2022-10-12T04:05:33.527Z,98.76
2022-10-12T04:05:53.590Z,98.78
2022-10-12T04:06:13.666Z,98.76
2022-10-12T04:06:33.708Z,98.8
2022-10-12T04:06:53.767Z,98.79
2022-10-12T04:07:13.822Z,98.89
2022-10-12T04:07:33.891Z,98.9
2022-10-12T04:07:53.955Z,98.95
2022-10-12T04:08:14.006Z,98.95
2022-10-12T04:08:34.057Z,98.97
2022-10-12T04:08:54.133Z,98.99
2022-10-12T04:09:14.190Z,98.97
2022-10-12T04:09:34.241Z,98.95
2022-10-12T04:09:54.310Z,98.95
2022-10-12T04:10:14.369Z,98.95
2022-10-12T04:10:34.432Z,98.91
2022-10-12T04:10:54.498Z,98.9
2022-10-12T04:11:14.542Z,98.93
2022-10-12T04:11:34.600Z,98.9
2022-10-12T04:11:54.697Z,99.02
2022-10-12T04:12:14.758Z,98.96
2022-10-12T04:12:34.812Z,98.98
2022-10-12T04:12:54.879Z,98.99
2022-10-12T04:13:14.941Z,99.02
2022-10-12T04:13:34.964Z,99.07
2022-10-12T04:13:55.023Z,99.02
2022-10-12T04:14:15.114Z,99.02
2022-10-12T04:14:35.195Z,98.99
2022-10-12T04:14:55.221Z,99.02
2022-10-12T04:15:15.366Z,99.01
2022-10-12T04:15:35.355Z,99.06
2022-10-12T04:15:55.418Z,99.04
2022-10-12T04:16:15.466Z,99.07
2022-10-12T04:16:35.534Z,99.02
2022-10-12T04:16:55.590Z,99.08
2022-10-12T04:17:15.648Z,99.1
2022-10-12T04:17:35.903Z,99.08
2022-10-12T04:17:55.794Z,99.08
2022-10-12T04:18:15.827Z,99.13
2022-10-12T04:18:35.897Z,99.1
2022-10-12T04:18:55.960Z,99.15
2022-10-12T04:19:16.011Z,99.18